Ceuta, Spain
Current Conditions -  °F | °C
As of 5:50 AM on Sunday 26 Oct 2014 (Local Time) from LXGB Reporting Station
Scattered Clouds Scattered Clouds  
Wind Chill: 68°   Ceiling: Unl
Heat Index: 68°   Visibility: 6mi
Dew Point: 61°   Wind: 13mph
Humidity: 78%   Direction: 110°ESE
Pressure: 30.09"   Gusts: NA
Location:  35.89°N, 5.32°W
Report Text: LXGB 260350Z AUTO 11011KT 9999 // SCT160/// SCT210/// 20/16 Q1019
Loading
Personal Weather Stations






























Interactive Weather Map
Tropical Storm Tracking
New forecast layout! Learn more

10-Day Weather Forecast

Advertisements
Track Severe Weather on mobile